Time;durP1;ratioP1;P1;durP2;ratioP2;P2;SDS_P1;SDS_P2;PMS_P1;PMS_P2;Temp;Humidity;BMP_temperature;BMP_pressure;BME280_temperature;BME280_humidity;BME280_pressure;Samples;Min_cycle;Max_cycle;Signal;HPM_P1;HPM_P2
2021/04/07 00:01:30;;;;;;;4.70;3.45;;;;;;;2.14;77.10;99140.67;2847441;83;21125;-65
2021/04/07 00:05:40;;;;;;;6.50;5.72;;;;;;;2.13;77.26;99135.54;2835489;83;21172;-64
2021/04/07 00:09:42;;;;;;;5.62;4.22;;;;;;;2.16;77.24;99136.64;2841172;82;21584;-63
2021/04/07 00:13:48;;;;;;;7.53;4.58;;;;;;;2.18;77.16;99133.94;2861602;82;21160;-63
2021/04/07 00:18:14;;;;;;;6.35;4.08;;;;;;;2.16;77.21;99137.95;2865772;83;21628;-62
2021/04/07 00:22:16;;;;;;;8.18;4.10;;;;;;;2.19;77.18;99144.80;2803247;84;21169;-61
2021/04/07 00:26:22;;;;;;;8.08;4.58;;;;;;;2.17;77.26;99151.93;2803505;84;21701;-61
2021/04/07 00:30:47;;;;;;;7.62;4.92;;;;;;;2.19;77.30;99155.30;2803846;84;21161;-62
2021/04/07 00:34:50;;;;;;;11.93;5.40;;;;;;;2.29;77.72;99161.61;2777979;85;21168;-62
2021/04/07 00:38:53;;;;;;;9.33;6.12;;;;;;;2.40;77.88;99159.12;2776468;85;21142;-63
2021/04/07 00:43:01;;;;;;;8.75;5.97;;;;;;;2.52;77.99;99162.72;2772924;85;21181;-62
2021/04/07 00:47:04;;;;;;;9.13;4.87;;;;;;;2.65;77.89;99160.11;2772493;85;21165;-64
2021/04/07 00:51:10;;;;;;;8.78;5.70;;;;;;;2.77;77.73;99164.19;2772532;85;21168;-63
2021/04/07 00:55:18;;;;;;;6.07;4.13;;;;;;;2.84;77.03;99158.88;2772506;85;21197;-63
2021/04/07 00:59:22;;;;;;;5.60;3.85;;;;;;;2.82;76.36;99163.39;2772579;85;21141;-61
2021/04/07 01:03:28;;;;;;;7.40;3.58;;;;;;;2.82;76.32;99157.66;2772627;85;21153;-63
2021/04/07 01:07:33;;;;;;;;;;;;;;;2.77;76.28;99162.38;2775127;85;21630;-62
2021/04/07 01:11:39;;;;;;;4.92;4.12;;;;;;;2.73;76.19;99158.75;2757516;85;20184;-61
2021/04/07 01:15:44;;;;;;;;;;;;;;;2.76;76.03;99162.50;2727906;86;22248;-63
2021/04/07 01:19:49;;;;;;;4.92;3.47;;;;;;;2.76;75.73;99159.39;2725566;86;20188;-61
2021/04/07 01:23:57;;;;;;;4.05;3.15;;;;;;;2.83;75.91;99155.39;2725225;86;21417;-63
2021/04/07 01:28:03;;;;;;;5.17;3.52;;;;;;;2.87;75.86;99158.66;2725261;86;21181;-61
2021/04/07 01:32:27;;;;;;;10.18;4.10;;;;;;;2.97;75.93;99170.23;2725596;86;21184;-64
2021/04/07 01:36:30;;;;;;;3.90;2.95;;;;;;;3.07;75.81;99163.88;2827521;84;21158;-63
2021/04/07 01:40:36;;;;;;;3.85;3.52;;;;;;;3.15;75.20;99160.73;2859215;82;21640;-62
2021/04/07 01:44:42;;;;;;;8.37;5.03;;;;;;;3.21;75.08;99173.44;2876682;82;21632;-60
2021/04/07 01:48:48;;;;;;;8.98;5.03;;;;;;;3.29;75.16;99171.10;2863710;82;21155;-61
2021/04/07 01:52:52;;;;;;;;;;;;;;;3.35;74.73;99170.33;2866128;83;21163;-60
2021/04/07 01:56:58;;;;;;;8.10;3.95;;;;;;;3.38;74.55;99180.63;2863637;83;20175;-63
2021/04/07 02:01:04;;;;;;;;;;;;;;;3.41;74.65;99186.98;2866390;83;21159;-59
2021/04/07 02:05:08;;;;;;;6.83;4.95;;;;;;;3.46;74.65;99178.78;2863885;82;20175;-63
2021/04/07 02:09:12;;;;;;;7.22;5.35;;;;;;;3.48;74.28;99188.22;2863717;83;21159;-62
2021/04/07 02:13:15;;;;;;;10.70;7.12;;;;;;;3.44;74.15;99194.65;2863600;83;21148;-64
2021/04/07 02:17:29;;;;;;;7.80;6.80;;;;;;;3.32;74.38;99189.77;2863881;83;21187;-62
2021/04/07 02:21:32;;;;;;;8.33;5.58;;;;;;;3.33;74.43;99192.77;2863666;83;21163;-64
2021/04/07 02:25:39;;;;;;;7.25;4.92;;;;;;;3.33;74.42;99199.34;2863608;83;21662;-61
2021/04/07 02:29:47;;;;;;;8.40;6.55;;;;;;;3.27;74.58;99215.05;2863775;82;21135;-61
2021/04/07 02:33:50;;;;;;;9.18;6.75;;;;;;;3.22;74.82;99204.03;2863606;82;21612;-61
2021/04/07 02:37:56;;;;;;;5.65;4.53;;;;;;;3.20;74.73;99208.55;2863798;83;21147;-61
2021/04/07 02:42:01;;;;;;;7.47;6.03;;;;;;;3.24;74.19;99209.16;2863984;83;21179;-62
2021/04/07 02:46:26;;;;;;;5.92;4.85;;;;;;;3.23;74.71;99202.22;2863682;83;21163;-62
2021/04/07 02:50:29;;;;;;;5.60;4.90;;;;;;;3.23;74.52;99206.16;2810610;84;21183;-62
2021/04/07 02:54:34;;;;;;;6.80;5.00;;;;;;;3.22;74.16;99211.91;2843349;83;21144;-64
2021/04/07 02:58:41;;;;;;;4.95;4.28;;;;;;;3.20;74.48;99212.49;2843574;83;21149;-66
2021/04/07 03:02:46;;;;;;;5.92;4.03;;;;;;;3.21;74.05;99200.17;2843096;83;21618;-67
2021/04/07 03:06:53;;;;;;;8.65;5.28;;;;;;;3.23;73.95;99214.05;2843346;83;21153;-64
2021/04/07 03:10:57;;;;;;;6.03;5.17;;;;;;;3.27;74.34;99221.63;2843759;83;21166;-63
2021/04/07 03:15:06;;;;;;;4.87;4.37;;;;;;;3.29;74.32;99223.67;2843462;83;21145;-63
2021/04/07 03:19:09;;;;;;;5.97;4.40;;;;;;;3.32;74.25;99219.15;2843410;83;21304;-63
2021/04/07 03:23:12;;;;;;;6.62;5.55;;;;;;;3.36;73.64;99209.64;2843332;83;21630;-63
2021/04/07 03:27:16;;;;;;;7.58;4.30;;;;;;;3.23;72.76;99225.42;2843513;83;21153;-63
2021/04/07 03:31:19;;;;;;;8.70;4.58;;;;;;;3.09;72.61;99221.56;2843298;83;21625;-62
2021/04/07 03:35:24;;;;;;;5.95;3.77;;;;;;;3.02;72.08;99236.08;2843572;83;21134;-63
2021/04/07 03:39:29;;;;;;;5.45;4.15;;;;;;;2.98;71.82;99220.52;2828244;81;21139;-63
2021/04/07 03:43:33;;;;;;;8.03;4.97;;;;;;;2.99;72.08;99222.20;2858780;83;21605;-64
2021/04/07 03:47:41;;;;;;;7.35;5.10;;;;;;;3.03;72.21;99231.19;2858724;82;21167;-63
2021/04/07 03:51:47;;;;;;;6.97;5.55;;;;;;;2.98;72.10;99237.60;2800781;85;21628;-65
2021/04/07 03:55:53;;;;;;;;;;;;;;;2.97;72.25;99246.42;2835760;83;21578;-63
2021/04/07 03:59:57;;;;;;;7.90;6.95;;;;;;;2.94;72.66;99250.55;2833475;84;20180;-63
2021/04/07 04:04:03;;;;;;;10.90;5.47;;;;;;;2.96;73.16;99253.94;2800704;85;21621;-64
2021/04/07 04:08:09;;;;;;;9.38;6.22;;;;;;;2.92;73.53;99264.75;2833272;82;21160;-64
2021/04/07 04:12:14;;;;;;;5.50;4.87;;;;;;;2.94;73.77;99263.69;2800900;83;21153;-63
2021/04/07 04:16:17;;;;;;;5.50;4.53;;;;;;;2.93;74.37;99263.80;2833081;84;21967;-63
2021/04/07 04:20:21;;;;;;;5.05;3.47;;;;;;;2.84;76.03;99275.27;2833325;84;21186;-64
2021/04/07 04:24:27;;;;;;;8.50;6.00;;;;;;;2.69;77.62;99269.25;2833168;84;21165;-64
2021/04/07 04:28:31;;;;;;;6.97;6.25;;;;;;;2.53;78.87;99269.87;2833211;84;21161;-63
2021/04/07 04:32:34;;;;;;;6.20;4.65;;;;;;;2.51;79.71;99274.38;2833082;84;21549;-63
2021/04/07 04:36:37;;;;;;;7.10;5.37;;;;;;;2.51;80.09;99277.02;2833019;84;21177;-64
2021/04/07 04:40:40;;;;;;;8.65;5.58;;;;;;;2.53;80.24;99280.38;2833266;84;21169;-64
2021/04/07 04:44:45;;;;;;;6.85;4.87;;;;;;;2.53;79.91;99280.38;2833439;83;21186;-63
2021/04/07 04:48:48;;;;;;;5.20;4.67;;;;;;;2.54;79.27;99280.29;2833519;83;21160;-64
2021/04/07 04:52:56;;;;;;;7.60;4.95;;;;;;;2.56;79.66;99280.20;2833455;84;21161;-64
2021/04/07 04:57:02;;;;;;;4.97;4.17;;;;;;;2.52;80.35;99290.05;2833866;82;21145;-63
2021/04/07 05:01:10;;;;;;;12.10;5.65;;;;;;;2.52;80.08;99297.06;2833670;82;21153;-63
2021/04/07 05:05:15;;;;;;;6.72;5.47;;;;;;;2.51;80.90;99297.55;2833427;84;21161;-64
2021/04/07 05:09:20;;;;;;;7.40;4.30;;;;;;;2.49;81.24;99310.39;2833587;84;21176;-64
2021/04/07 05:13:25;;;;;;;9.88;6.47;;;;;;;2.53;81.45;99310.56;2832931;84;21159;-64
2021/04/07 05:17:35;;;;;;;13.00;6.30;;;;;;;2.54;81.65;99320.13;2833623;84;21583;-62
2021/04/07 05:21:37;;;;;;;7.92;6.17;;;;;;;2.54;81.56;99333.25;2833285;84;21156;-62
2021/04/07 05:25:44;;;;;;;13.15;6.10;;;;;;;2.54;81.78;99330.63;2801112;83;21169;-62
2021/04/07 05:29:50;;;;;;;9.83;5.55;;;;;;;2.54;82.21;99345.06;2833692;83;21134;-63
2021/04/07 05:33:54;;;;;;;12.75;6.55;;;;;;;2.55;81.98;99350.69;2800847;83;21739;-62
2021/04/07 05:38:00;;;;;;;10.90;6.33;;;;;;;2.58;81.87;99354.46;2786033;84;21474;-62
2021/04/07 05:42:04;;;;;;;10.85;7.00;;;;;;;2.63;81.66;99369.90;2808625;84;21571;-63
2021/04/07 05:46:09;;;;;;;12.28;6.78;;;;;;;2.65;81.31;99378.06;2832678;84;21201;-65
2021/04/07 05:50:12;;;;;;;9.48;5.53;;;;;;;2.65;81.17;99386.39;2801064;83;21187;-62
2021/04/07 05:54:26;;;;;;;13.18;6.22;;;;;;;2.66;81.07;99392.88;2812115;84;21189;-63
2021/04/07 05:58:29;;;;;;;13.20;8.40;;;;;;;2.76;80.95;99387.05;2831916;84;21170;-63
2021/04/07 06:02:32;;;;;;;12.33;8.05;;;;;;;2.82;81.05;99384.03;2777379;83;21205;-63
2021/04/07 06:06:35;;;;;;;14.45;8.65;;;;;;;2.95;79.85;99390.19;2827716;84;21765;-63
2021/04/07 06:10:42;;;;;;;8.48;6.08;;;;;;;3.10;79.87;99394.91;2811366;83;21586;-62
2021/04/07 06:14:45;;;;;;;19.37;8.20;;;;;;;3.18;78.78;99400.13;2831209;84;21201;-62
2021/04/07 06:18:48;;;;;;;9.25;7.00;;;;;;;3.26;78.46;99394.74;2801151;83;21122;-62
2021/04/07 06:22:51;;;;;;;8.80;7.20;;;;;;;3.34;77.76;99400.81;2824129;84;21130;-63
2021/04/07 06:26:54;;;;;;;7.92;6.50;;;;;;;3.39;78.04;99412.34;2833161;84;21162;-63
2021/04/07 06:30:57;;;;;;;18.67;6.97;;;;;;;3.55;77.69;99413.02;2833010;84;21170;-62
2021/04/07 06:35:00;;;;;;;14.50;9.45;;;;;;;3.63;76.77;99415.59;2800748;83;21138;-62
2021/04/07 06:39:04;;;;;;;13.88;8.85;;;;;;;3.53;76.48;99425.40;2833126;83;21156;-63
2021/04/07 06:43:08;;;;;;;13.40;8.48;;;;;;;3.49;77.00;99426.55;2800815;83;21173;-63
2021/04/07 06:47:15;;;;;;;12.70;8.28;;;;;;;3.47;76.69;99418.41;2832287;84;21120;-63
2021/04/07 06:51:20;;;;;;;9.65;6.78;;;;;;;3.52;76.99;99426.34;2847308;83;21160;-63
2021/04/07 06:55:25;;;;;;;11.43;8.18;;;;;;;3.54;76.46;99437.63;2822380;84;21196;-63
2021/04/07 06:59:28;;;;;;;13.30;8.25;;;;;;;3.60;76.57;99436.84;2851332;83;21156;-62
2021/04/07 07:03:31;;;;;;;12.47;7.25;;;;;;;3.66;75.95;99435.97;2773184;85;21168;-63
2021/04/07 07:07:34;;;;;;;12.80;6.50;;;;;;;3.83;75.87;99436.60;2773005;85;21173;-62
2021/04/07 07:11:39;;;;;;;10.18;6.00;;;;;;;3.97;76.22;99448.36;2851546;83;21125;-62
2021/04/07 07:15:42;;;;;;;13.15;7.28;;;;;;;4.00;74.28;99463.11;2751628;85;21207;-63
2021/04/07 07:19:48;;;;;;;12.25;7.50;;;;;;;4.23;74.37;99457.60;2851342;83;21510;-63
2021/04/07 07:23:51;;;;;;;;;;;;;;;4.53;73.51;99454.27;2825003;83;21138;-61
2021/04/07 07:28:02;;;;;;;10.40;6.97;;;;;;;4.66;72.42;99454.23;2822161;83;20494;-61
2021/04/07 07:32:08;;;;;;;6.25;4.95;;;;;;;4.55;71.55;99463.72;2851606;83;21203;-61
2021/04/07 07:36:12;;;;;;;13.48;6.95;;;;;;;4.38;71.91;99457.01;2821427;83;21158;-64
2021/04/07 07:40:20;;;;;;;10.40;6.92;;;;;;;4.33;72.32;99469.66;2843794;83;21627;-64
2021/04/07 07:44:24;;;;;;;9.00;6.20;;;;;;;4.55;73.23;99468.98;2821800;84;21211;-63
2021/04/07 07:48:32;;;;;;;20.97;8.10;;;;;;;4.71;72.86;99458.20;2814703;84;21153;-63
2021/04/07 07:52:37;;;;;;;12.98;7.55;;;;;;;4.74;72.05;99477.41;2773356;85;21173;-63
2021/04/07 07:56:40;;;;;;;;;;;;;;;4.69;69.75;99497.48;2776441;85;21156;-63
2021/04/07 08:00:43;;;;;;;11.70;7.40;;;;;;;4.66;70.62;99493.27;2773665;85;20142;-64
2021/04/07 08:04:47;;;;;;;8.80;6.50;;;;;;;4.56;69.51;99485.65;2773790;85;21157;-64
2021/04/07 08:08:52;;;;;;;31.55;7.95;;;;;;;4.47;69.45;99503.39;2769648;85;21591;-63
2021/04/07 08:12:56;;;;;;;11.25;6.37;;;;;;;4.64;70.99;99500.44;2772955;85;21197;-63
2021/04/07 08:17:00;;;;;;;10.75;6.67;;;;;;;4.79;70.27;99502.95;2794435;85;21653;-63
2021/04/07 08:21:04;;;;;;;8.55;6.10;;;;;;;4.81;68.84;99501.88;2713859;85;21184;-63
2021/04/07 08:25:09;;;;;;;9.05;5.17;;;;;;;4.81;68.36;99490.51;2725348;87;21179;-63
2021/04/07 08:29:13;;;;;;;14.75;5.45;;;;;;;4.84;68.51;99512.22;2725770;86;29500;-64
2021/04/07 08:33:23;;;;;;;8.28;4.67;;;;;;;5.07;65.54;99515.02;2726188;87;21153;-63
2021/04/07 08:37:29;;;;;;;9.15;4.53;;;;;;;5.12;66.30;99517.33;2726149;87;21592;-63
2021/04/07 08:41:33;;;;;;;4.95;4.37;;;;;;;5.19;67.25;99525.16;2711654;85;21174;-64
2021/04/07 08:45:48;;;;;;;10.10;4.67;;;;;;;5.10;65.22;99524.48;2792421;85;21173;-63
2021/04/07 08:50:08;;;;;;;7.45;5.00;;;;;;;5.23;67.51;99525.30;2721659;86;21543;-63
2021/04/07 08:54:10;;;;;;;6.78;4.70;;;;;;;5.40;66.51;99531.16;2754640;86;21149;-64
2021/04/07 08:58:19;;;;;;;4.62;3.85;;;;;;;5.72;64.39;99503.73;2696026;86;21603;-63
2021/04/07 09:02:24;;;;;;;6.55;3.95;;;;;;;5.88;63.14;99532.09;2698154;87;21615;-63
2021/04/07 09:06:27;;;;;;;5.97;4.85;;;;;;;5.80;62.68;99546.70;2698493;87;21196;-64
2021/04/07 09:10:45;;;;;;;5.70;4.35;;;;;;;5.66;62.90;99536.31;2695692;87;21219;-64
2021/04/07 09:14:55;;;;;;;5.30;3.98;;;;;;;5.55;64.42;99560.39;2704627;87;21161;-64
2021/04/07 09:19:22;;;;;;;7.28;3.60;;;;;;;5.49;64.44;99538.88;2702003;87;21233;-65
2021/04/07 09:23:32;;;;;;;5.95;3.15;;;;;;;5.51;62.05;99539.61;2782059;85;21154;-63
2021/04/07 09:27:35;;;;;;;5.37;4.00;;;;;;;5.85;61.32;99551.16;2754245;86;21193;-63
2021/04/07 09:31:39;;;;;;;5.53;2.77;;;;;;;6.09;60.66;99552.98;2706599;86;21189;-63
2021/04/07 09:35:58;;;;;;;2.30;2.08;;;;;;;6.28;60.17;99554.21;2705164;86;21153;-64
2021/04/07 09:40:02;;;;;;;6.42;3.45;;;;;;;6.69;58.23;99524.26;2691353;87;21172;-64
2021/04/07 09:44:07;;;;;;;4.53;2.80;;;;;;;6.91;59.33;99555.16;2764400;84;21165;-63
2021/04/07 09:48:10;;;;;;;8.73;4.27;;;;;;;6.85;59.05;99551.19;2763031;84;21702;-63
2021/04/07 09:52:13;;;;;;;5.10;3.50;;;;;;;6.43;59.42;99579.97;2784568;85;21201;-63
2021/04/07 09:56:16;;;;;;;5.42;4.17;;;;;;;6.18;59.78;99572.55;2685632;86;21228;-63
2021/04/07 10:00:20;;;;;;;7.15;4.40;;;;;;;5.95;61.40;99576.89;2694444;87;21174;-63
2021/04/07 10:04:29;;;;;;;5.80;4.10;;;;;;;5.92;63.60;99573.16;2690305;87;21196;-62
2021/04/07 10:08:32;;;;;;;7.60;4.50;;;;;;;5.88;60.37;99584.88;2675631;88;21514;-63
2021/04/07 10:12:36;;;;;;;4.75;3.08;;;;;;;5.93;60.38;99577.48;2694917;87;21454;-63
2021/04/07 10:16:40;;;;;;;1.85;1.32;;;;;;;6.08;58.62;99576.36;2685222;87;21674;-63
2021/04/07 10:20:44;;;;;;;3.02;1.35;;;;;;;6.20;56.54;99579.05;2702209;87;21599;-63
2021/04/07 10:24:48;;;;;;;3.10;1.52;;;;;;;6.16;56.98;99607.97;2694472;87;22359;-63
2021/04/07 10:29:02;;;;;;;5.62;3.02;;;;;;;6.49;60.46;99609.88;2695900;87;21177;-63
2021/04/07 10:33:05;;;;;;;4.10;2.17;;;;;;;6.91;56.73;99600.11;2701644;87;21149;-64
2021/04/07 10:37:10;;;;;;;2.05;1.60;;;;;;;7.41;54.79;99581.67;2703871;86;21637;-63
2021/04/07 10:41:13;;;;;;;3.35;1.50;;;;;;;7.38;53.57;99592.50;2693462;87;21200;-64
2021/04/07 10:45:21;;;;;;;3.75;2.58;;;;;;;7.08;55.86;99601.92;2692872;86;21578;-64
2021/04/07 10:49:25;;;;;;;3.30;2.27;;;;;;;6.91;58.58;99608.03;2693896;86;21248;-64
2021/04/07 10:53:32;;;;;;;4.62;2.47;;;;;;;7.06;57.45;99594.09;2717831;87;21236;-64
2021/04/07 10:57:39;;;;;;;7.17;3.65;;;;;;;7.07;56.45;99592.27;2704057;87;21237;-63
2021/04/07 11:01:42;;;;;;;7.42;4.55;;;;;;;6.77;56.29;99595.86;2717839;87;21634;-63
2021/04/07 11:05:47;;;;;;;26.80;4.05;;;;;;;6.55;57.77;99613.86;2712542;86;21181;-63
2021/04/07 11:09:50;;;;;;;4.22;3.33;;;;;;;6.13;59.67;99621.77;2711288;87;21659;-64
2021/04/07 11:13:54;;;;;;;7.03;3.90;;;;;;;5.80;60.42;99627.20;2714392;87;21587;-63
2021/04/07 11:17:58;;;;;;;2.67;2.10;;;;;;;5.75;60.61;99637.27;2708810;87;21176;-63
2021/04/07 11:22:03;;;;;;;5.15;3.85;;;;;;;5.80;57.60;99643.05;2709818;87;21200;-64
2021/04/07 11:26:09;;;;;;;9.55;4.87;;;;;;;6.11;58.98;99628.97;2710302;87;21181;-63
2021/04/07 11:30:13;;;;;;;;;;;;;;;6.83;62.42;99622.31;2707681;87;21677;-63
2021/04/07 11:34:17;;;;;;;8.78;4.90;;;;;;;7.16;59.64;99618.02;2728950;87;20168;-63
2021/04/07 11:38:21;;;;;;;8.38;5.53;;;;;;;7.02;58.21;99634.11;2776973;84;21177;-63
2021/04/07 11:42:29;;;;;;;5.70;4.05;;;;;;;6.99;60.35;99633.39;2773155;84;21697;-63
2021/04/07 11:46:30;;;;;;;7.03;4.05;;;;;;;6.91;59.86;99631.83;2845091;83;21647;-63
2021/04/07 11:50:33;;;;;;;3.85;2.15;;;;;;;7.15;58.40;99614.52;2846670;83;21144;-63
2021/04/07 11:54:36;;;;;;;8.73;2.95;;;;;;;7.55;54.60;99613.17;2812761;83;21164;-64
2021/04/07 11:58:39;;;;;;;8.73;4.12;;;;;;;7.85;56.51;99612.14;2835971;83;21134;-64
2021/04/07 12:02:44;;;;;;;5.45;3.62;;;;;;;7.90;55.82;99607.30;2763426;86;21189;-63
2021/04/07 12:06:48;;;;;;;7.67;4.85;;;;;;;7.66;56.23;99629.52;2828414;83;21204;-63
2021/04/07 12:10:50;;;;;;;6.55;3.65;;;;;;;7.73;58.10;99603.39;2813512;83;21170;-64
2021/04/07 12:14:53;;;;;;;17.55;5.15;;;;;;;8.13;59.81;99600.59;2839874;82;21144;-64
2021/04/07 12:18:57;;;;;;;8.50;4.00;;;;;;;8.03;58.65;99591.74;2814383;83;21200;-64
2021/04/07 12:23:01;;;;;;;5.22;3.25;;;;;;;7.86;56.35;99590.84;2750406;86;21156;-64
2021/04/07 12:27:05;;;;;;;6.20;3.83;;;;;;;7.86;56.76;99604.55;2841183;83;21713;-64
2021/04/07 12:31:10;;;;;;;5.20;2.62;;;;;;;7.92;55.41;99604.55;2814245;83;21157;-64
2021/04/07 12:35:14;;;;;;;4.50;2.40;;;;;;;7.94;55.23;99607.91;2840734;83;22157;-65
2021/04/07 12:39:18;;;;;;;6.75;3.25;;;;;;;8.02;54.46;99601.48;2806873;83;21186;-62
2021/04/07 12:43:21;;;;;;;5.05;3.47;;;;;;;8.08;54.79;99600.14;2841330;83;21168;-60
2021/04/07 12:47:24;;;;;;;4.60;3.37;;;;;;;7.83;55.05;99607.45;2813297;83;21205;-61
2021/04/07 12:51:29;;;;;;;6.28;4.72;;;;;;;7.61;57.98;99612.31;2837004;83;21142;-60
2021/04/07 12:55:32;;;;;;;4.05;3.08;;;;;;;7.24;57.86;99607.66;2832373;84;21161;-60
2021/04/07 12:59:35;;;;;;;11.22;6.90;;;;;;;7.31;59.77;99619.10;2832615;84;21185;-61
2021/04/07 13:03:38;;;;;;;8.25;4.20;;;;;;;7.48;59.17;99626.55;2812328;84;21158;-60
2021/04/07 13:07:41;;;;;;;8.43;4.65;;;;;;;7.24;59.18;99623.53;2832960;84;21599;-60
2021/04/07 13:11:45;;;;;;;9.95;4.28;;;;;;;7.11;59.80;99623.66;2832453;83;21153;-59
2021/04/07 13:15:48;;;;;;;11.63;4.47;;;;;;;7.17;59.14;99613.55;2832270;84;21125;-61
2021/04/07 13:19:53;;;;;;;7.10;3.33;;;;;;;7.36;58.75;99604.52;2800524;84;21468;-61
2021/04/07 13:23:55;;;;;;;10.80;4.03;;;;;;;7.41;54.40;99612.95;2832300;84;21160;-61
2021/04/07 13:27:58;;;;;;;4.50;2.45;;;;;;;7.67;55.80;99598.11;2832572;84;21157;-61
2021/04/07 13:32:05;;;;;;;3.37;2.12;;;;;;;7.75;55.03;99584.25;2832371;82;21638;-62
2021/04/07 13:44:34;;;;;;;3.65;2.05;;;;;;;8.19;56.19;99659.72;2800500;85;21118;-61
2021/04/07 13:48:38;;;;;;;7.12;4.33;;;;;;;7.10;61.14;99663.47;2831810;83;21715;-60
2021/04/07 13:52:42;;;;;;;14.35;5.35;;;;;;;6.12;62.26;99652.23;2844662;83;21156;-61
2021/04/07 14:01:04;;;;;;;4.33;2.52;;;;;;;5.84;66.80;99648.95;3033541;77;23436;-60
2021/04/07 14:05:09;;;;;;;11.30;4.03;;;;;;;5.96;66.71;99668.34;2989416;78;21574;-62
2021/04/07 14:09:15;;;;;;;2.98;2.33;;;;;;;5.89;66.92;99677.63;2974065;78;21186;-61
2021/04/07 14:13:18;;;;;;;5.37;3.07;;;;;;;5.89;66.20;99685.55;2990927;78;21137;-61
2021/04/07 14:17:21;;;;;;;3.72;2.30;;;;;;;5.62;69.05;99712.51;2964246;80;21140;-59
2021/04/07 14:21:26;;;;;;;2.37;2.17;;;;;;;5.10;71.50;99682.20;2963396;80;21125;-59
2021/04/07 14:25:31;;;;;;;4.85;3.55;;;;;;;4.79;72.36;99668.96;2983252;78;21524;-60
2021/04/07 14:29:58;;;;;;;17.67;8.10;;;;;;;4.82;74.19;99667.43;2990362;78;21164;-60
2021/04/07 14:34:03;;;;;;;11.97;4.03;;;;;;;5.28;74.30;99665.57;2789640;84;21179;-60
2021/04/07 14:38:06;;;;;;;9.53;4.62;;;;;;;5.94;71.32;99656.55;2823672;83;21145;-60
2021/04/07 14:42:10;;;;;;;3.55;2.87;;;;;;;6.63;71.68;99648.46;2817734;84;21553;-60
2021/04/07 14:46:13;;;;;;;6.80;5.00;;;;;;;7.32;68.26;99642.77;2799826;83;21408;-60
2021/04/07 14:54:42;;;;;;;9.75;3.00;;;;;;;7.92;63.41;99643.77;2809197;83;21180;-61
2021/04/07 14:58:43;;;;;;;6.28;3.45;;;;;;;7.99;60.07;99615.84;2786724;84;21131;-61
2021/04/07 15:02:51;;;;;;;4.53;1.92;;;;;;;7.74;54.21;99652.73;2759450;85;21137;-60
2021/04/07 15:06:54;;;;;;;4.12;2.80;;;;;;;7.50;59.00;99672.72;2759162;85;21166;-61
2021/04/07 15:10:57;;;;;;;8.73;4.90;;;;;;;7.09;60.62;99669.22;2771432;83;21188;-62
2021/04/07 15:15:00;;;;;;;6.60;4.60;;;;;;;7.14;62.84;99667.55;2793510;83;21175;-61
2021/04/07 15:19:03;;;;;;;5.00;3.37;;;;;;;7.50;60.47;99651.08;2793254;83;21176;-60
2021/04/07 15:23:06;;;;;;;9.20;3.60;;;;;;;7.87;56.07;99630.07;2768530;84;21176;-61
2021/04/07 15:27:20;;;;;;;8.98;4.25;;;;;;;8.31;54.42;99627.86;2807486;83;21159;-61
2021/04/07 15:31:25;;;;;;;12.10;4.15;;;;;;;8.58;53.53;99616.80;2792061;84;21164;-60
2021/04/07 15:35:28;;;;;;;6.70;4.35;;;;;;;8.85;51.98;99618.92;2814653;84;21234;-61
2021/04/07 15:39:38;;;;;;;5.37;3.40;;;;;;;8.84;51.07;99642.44;2814981;84;21144;-64
2021/04/07 15:43:44;;;;;;;4.67;3.52;;;;;;;8.90;49.74;99627.81;2816716;84;21154;-62
2021/04/07 15:47:49;;;;;;;3.35;3.10;;;;;;;8.82;49.86;99628.94;2816455;84;21144;-60
2021/04/07 15:51:54;;;;;;;6.87;3.58;;;;;;;8.61;49.83;99619.19;2808494;83;21121;-62
2021/04/07 15:56:03;;;;;;;7.47;4.22;;;;;;;8.52;50.12;99638.53;2800693;83;21600;-60
2021/04/07 16:00:13;;;;;;;5.40;4.87;;;;;;;8.45;49.79;99638.16;2770049;86;21143;-62
2021/04/07 16:04:16;;;;;;;7.03;4.62;;;;;;;8.46;50.70;99637.70;2769938;86;21124;-61
2021/04/07 16:08:19;;;;;;;5.10;3.87;;;;;;;8.47;50.72;99640.70;2793651;83;21590;-61
2021/04/07 16:12:22;;;;;;;6.40;4.15;;;;;;;8.31;50.23;99644.62;2791196;83;21123;-63
2021/04/07 16:16:26;;;;;;;7.50;4.75;;;;;;;8.22;50.62;99650.66;2799105;83;21552;-61
2021/04/07 16:20:33;;;;;;;5.63;5.13;;;;;;;8.14;51.52;99654.80;2777669;83;21157;-61
2021/04/07 16:24:36;;;;;;;6.63;5.13;;;;;;;8.21;51.92;99657.78;2800204;83;21840;-60
2021/04/07 16:28:43;;;;;;;9.65;3.87;;;;;;;8.28;51.47;99660.78;2814629;83;21394;-61
2021/04/07 16:32:50;;;;;;;5.70;4.47;;;;;;;8.25;51.61;99659.67;2800725;83;21162;-61
2021/04/07 16:36:57;;;;;;;8.30;4.65;;;;;;;8.05;51.56;99662.65;2805957;83;21173;-63
2021/04/07 16:41:00;;;;;;;7.33;5.00;;;;;;;7.88;51.46;99660.05;2790775;83;21160;-63
2021/04/07 16:45:05;;;;;;;5.67;3.75;;;;;;;7.75;51.90;99665.47;2789917;83;21121;-63
2021/04/07 16:49:10;;;;;;;6.45;4.83;;;;;;;7.59;52.37;99666.72;2801166;83;21199;-61
2021/04/07 16:53:14;;;;;;;6.97;4.20;;;;;;;7.49;52.97;99673.22;2812455;83;21595;-63
2021/04/07 16:57:17;;;;;;;5.60;4.15;;;;;;;7.40;52.36;99669.95;2803375;83;21140;-61
2021/04/07 17:01:20;;;;;;;6.33;3.75;;;;;;;7.28;52.73;99673.94;2802715;84;21187;-63
2021/04/07 17:05:23;;;;;;;6.12;4.22;;;;;;;7.19;52.53;99677.78;2816008;84;21144;-62
2021/04/07 17:09:26;;;;;;;7.80;5.00;;;;;;;7.12;53.61;99680.05;2816056;84;21196;-62
2021/04/07 17:13:29;;;;;;;8.95;4.75;;;;;;;6.93;54.25;99684.58;2812878;83;21630;-62
2021/04/07 17:17:32;;;;;;;9.68;6.42;;;;;;;6.69;54.62;99685.48;2779492;84;21208;-61
2021/04/07 17:21:38;;;;;;;7.05;5.42;;;;;;;6.45;55.28;99686.83;2769149;86;21196;-61
2021/04/07 17:25:40;;;;;;;8.43;5.30;;;;;;;6.22;55.60;99691.56;2809149;83;21101;-61
2021/04/07 17:29:43;;;;;;;7.12;5.47;;;;;;;6.07;56.17;99684.25;2809556;83;21539;-61
2021/04/07 17:33:46;;;;;;;8.48;5.70;;;;;;;5.96;56.52;99694.24;2758130;86;21140;-61
2021/04/07 17:37:49;;;;;;;9.60;6.40;;;;;;;5.81;57.04;99698.83;2755974;84;21177;-62
2021/04/07 17:41:53;;;;;;;9.13;4.97;;;;;;;5.61;57.61;99694.13;2716985;86;21171;-63
2021/04/07 17:45:56;;;;;;;5.97;4.45;;;;;;;5.39;58.17;99700.92;2786324;84;21105;-62
2021/04/07 17:50:01;;;;;;;8.75;5.80;;;;;;;5.17;58.83;99704.19;2793917;84;21173;-62
2021/04/07 17:54:05;;;;;;;7.45;5.72;;;;;;;5.00;59.03;99704.86;2780067;83;21086;-61
2021/04/07 17:58:08;;;;;;;9.15;6.12;;;;;;;4.90;59.56;99706.45;2801895;84;21156;-63
2021/04/07 18:02:12;;;;;;;5.55;4.62;;;;;;;4.79;60.25;99705.36;2782083;84;21459;-62
2021/04/07 18:06:17;;;;;;;6.62;5.65;;;;;;;4.62;60.71;99712.23;2772503;84;21125;-61
2021/04/07 18:10:20;;;;;;;7.45;5.87;;;;;;;4.46;61.15;99721.16;2806858;84;21156;-63
2021/04/07 18:14:25;;;;;;;6.80;5.65;;;;;;;4.34;61.46;99728.08;2784175;84;21097;-61
2021/04/07 18:18:31;;;;;;;10.20;7.58;;;;;;;4.22;61.74;99732.81;2808067;84;21196;-62
2021/04/07 18:22:34;;;;;;;;;;;;;;;4.24;61.66;99734.86;2788145;84;21635;-61
2021/04/07 18:26:37;;;;;;;9.33;7.40;;;;;;;4.23;61.85;99733.18;2809563;83;20183;-62
2021/04/07 18:30:42;;;;;;;7.95;5.25;;;;;;;4.22;61.95;99744.16;2786768;84;21190;-62
2021/04/07 18:34:45;;;;;;;10.23;6.37;;;;;;;4.22;62.35;99743.34;2768503;84;21144;-62
2021/04/07 18:38:48;;;;;;;5.80;4.25;;;;;;;4.19;62.80;99743.54;2766669;85;21648;-62
2021/04/07 18:42:52;;;;;;;7.78;5.00;;;;;;;4.17;63.02;99748.06;2770270;85;21158;-61
2021/04/07 18:46:55;;;;;;;8.53;5.42;;;;;;;4.11;63.42;99755.38;2771876;85;21169;-62
2021/04/07 18:50:59;;;;;;;9.65;5.37;;;;;;;4.09;63.91;99760.39;2759595;85;21588;-62
2021/04/07 18:55:03;;;;;;;8.65;5.42;;;;;;;4.06;64.07;99753.52;2785055;83;21188;-61
2021/04/07 18:59:06;;;;;;;6.70;5.08;;;;;;;4.03;64.38;99755.03;2754310;85;21126;-63
2021/04/07 19:03:13;;;;;;;11.43;7.85;;;;;;;4.03;64.91;99758.98;2754245;85;21173;-61
2021/04/07 19:07:15;;;;;;;9.20;5.55;;;;;;;3.99;65.39;99765.39;2763265;85;21137;-60
2021/04/07 19:11:19;;;;;;;6.60;5.03;;;;;;;3.94;65.64;99763.03;2783005;85;21189;-61
2021/04/07 19:15:22;;;;;;;7.30;3.58;;;;;;;3.91;66.10;99765.00;2750351;85;21110;-62
2021/04/07 19:23:56;;;;;;;8.63;4.67;;;;;;;3.86;66.69;99763.52;2729203;84;21155;-61
2021/04/07 19:27:59;;;;;;;9.05;4.40;;;;;;;3.83;67.03;99765.02;2750373;84;21615;-61
2021/04/07 19:32:03;;;;;;;5.33;3.67;;;;;;;3.76;67.34;99765.04;2724659;85;21594;-61
2021/04/07 19:36:06;;;;;;;9.70;4.58;;;;;;;3.70;67.55;99766.26;2744984;85;21189;-61
2021/04/07 19:40:13;;;;;;;5.15;3.40;;;;;;;3.67;67.93;99770.85;2744633;85;21200;-61
2021/04/07 19:44:15;;;;;;;6.55;4.30;;;;;;;3.64;68.04;99770.59;2727656;86;21233;-61
2021/04/07 19:48:21;;;;;;;5.92;3.58;;;;;;;3.65;68.10;99769.66;2740401;86;21595;-62